Time;durP1;ratioP1;P1;durP2;ratioP2;P2;SDS_P1;SDS_P2;PMS_P1;PMS_P2;Temp;Humidity;BMP_temperature;BMP_pressure;BME280_temperature;BME280_humidity;BME280_pressure;Samples;Min_cycle;Max_cycle;Signal;HPM_P1;HPM_P2
2022/10/08 00:00:05;;;;;;;9.33;4.40;;;;;;;7.73;100.00;100978.69;695529;28;1147;-68
2022/10/08 00:00:31;;;;;;;9.05;4.30;;;;;;;7.56;100.00;100977.59;695260;28;1082;-68
2022/10/08 00:00:57;;;;;;;8.70;4.27;;;;;;;7.46;100.00;100979.19;694613;28;1265;-69
2022/10/08 00:01:19;;;;;;;7.70;4.20;;;;;;;7.44;100.00;100978.31;696704;28;4863;-69
2022/10/08 00:01:40;;;;;;;9.20;4.22;;;;;;;7.39;100.00;100979.97;695365;28;1133;-70
2022/10/08 00:02:00;;;;;;;10.23;4.60;;;;;;;7.39;100.00;100975.63;694964;28;1084;-69
2022/10/08 00:02:20;;;;;;;7.73;4.17;;;;;;;7.36;100.00;100975.59;695585;28;1297;-70
2022/10/08 00:02:41;;;;;;;7.50;4.25;;;;;;;7.27;100.00;100978.97;694525;28;1316;-69
2022/10/08 00:03:01;;;;;;;7.87;4.40;;;;;;;7.21;100.00;100975.41;695116;28;1022;-68
2022/10/08 00:03:24;;;;;;;8.18;4.10;;;;;;;7.27;100.00;100978.97;695347;28;1348;-68
2022/10/08 00:03:48;;;;;;;8.60;3.90;;;;;;;7.35;100.00;100979.03;696364;28;1043;-68
2022/10/08 00:04:09;;;;;;;7.82;3.92;;;;;;;7.43;100.00;100976.56;694849;28;4344;-69
2022/10/08 00:04:30;;;;;;;9.02;4.35;;;;;;;7.55;100.00;100978.47;694896;28;1111;-67
2022/10/08 00:04:50;;;;;;;8.53;4.17;;;;;;;7.64;100.00;100973.34;695555;28;1148;-70
2022/10/08 00:05:10;;;;;;;8.50;4.20;;;;;;;7.61;100.00;100970.72;695718;28;1035;-70
2022/10/08 00:05:31;;;;;;;7.37;4.13;;;;;;;7.55;100.00;100974.13;695689;28;1348;-70
2022/10/08 00:06:00;;;;;;;7.33;4.13;;;;;;;7.55;100.00;100973.25;695251;28;1039;-68
2022/10/08 00:06:24;;;;;;;9.27;4.57;;;;;;;7.49;100.00;100968.81;695492;28;4720;-70
2022/10/08 00:06:44;;;;;;;8.73;4.47;;;;;;;7.44;100.00;100973.97;696693;28;1193;-70
2022/10/08 00:07:04;;;;;;;8.13;4.30;;;;;;;7.41;100.00;100970.47;694652;28;4389;-69
2022/10/08 00:07:25;;;;;;;9.67;4.37;;;;;;;7.38;100.00;100970.41;694510;28;1116;-69
2022/10/08 00:07:46;;;;;;;9.77;4.30;;;;;;;7.32;100.00;100968.59;694258;28;1068;-69
2022/10/08 00:08:08;;;;;;;8.68;4.30;;;;;;;7.25;100.00;100966.78;694445;28;1085;-68
2022/10/08 00:08:31;;;;;;;7.88;4.43;;;;;;;7.22;100.00;100970.22;696552;28;1142;-69
2022/10/08 00:08:57;;;;;;;9.63;4.90;;;;;;;7.25;100.00;100972.00;695254;28;1100;-68
2022/10/08 00:09:18;;;;;;;10.77;4.80;;;;;;;7.41;100.00;100979.16;695413;28;1084;-69
2022/10/08 00:09:38;;;;;;;10.73;4.32;;;;;;;7.50;100.00;100974.06;694918;28;1212;-70
2022/10/08 00:09:58;;;;;;;9.03;4.20;;;;;;;7.57;100.00;100967.19;695064;28;4411;-70
2022/10/08 00:10:18;;;;;;;9.27;4.17;;;;;;;7.57;100.00;100969.78;696273;28;1172;-70
2022/10/08 00:10:39;;;;;;;10.05;4.20;;;;;;;7.49;100.00;100969.72;696123;28;1126;-68
2022/10/08 00:11:02;;;;;;;9.13;4.40;;;;;;;7.44;100.00;100967.91;696440;28;1098;-69
2022/10/08 00:11:33;;;;;;;9.90;4.30;;;;;;;7.40;100.00;100972.19;694306;28;1177;-70
2022/10/08 00:11:54;;;;;;;9.43;4.13;;;;;;;7.28;100.00;100969.41;695891;28;1276;-68
2022/10/08 00:12:15;;;;;;;8.90;4.50;;;;;;;7.20;100.00;100968.44;695026;28;1106;-70
2022/10/08 00:12:36;;;;;;;10.88;4.88;;;;;;;7.12;100.00;100966.63;695347;28;1126;-69
2022/10/08 00:12:56;;;;;;;10.70;4.53;;;;;;;7.07;100.00;100973.47;694063;28;4500;-67
2022/10/08 00:13:17;;;;;;;8.32;4.40;;;;;;;7.08;100.00;100969.16;696889;28;1079;-69
2022/10/08 00:13:39;;;;;;;7.97;4.28;;;;;;;7.10;100.00;100970.03;696385;28;1225;-70
2022/10/08 00:14:01;;;;;;;8.10;4.25;;;;;;;7.18;100.00;100959.75;697077;28;1314;-69
2022/10/08 00:14:22;;;;;;;7.90;4.20;;;;;;;7.19;100.00;100966.72;694747;28;1135;-69
2022/10/08 00:14:42;;;;;;;8.15;4.22;;;;;;;7.26;100.00;100968.53;699765;28;1091;-69
2022/10/08 00:15:03;;;;;;;7.67;4.10;;;;;;;7.30;100.00;100960.78;699029;28;1236;-68
2022/10/08 00:15:24;;;;;;;9.35;4.20;;;;;;;7.42;100.00;100965.28;698610;28;1254;-69
2022/10/08 00:15:45;;;;;;;8.32;4.30;;;;;;;7.46;100.00;100964.47;699622;28;1173;-68
2022/10/08 00:16:27;;;;;;;7.70;4.20;;;;;;;7.53;100.00;100964.53;697570;28;4697;-68
2022/10/08 00:16:48;;;;;;;7.68;4.18;;;;;;;7.43;100.00;100954.00;696363;28;1165;-69
2022/10/08 00:17:08;;;;;;;8.70;4.20;;;;;;;7.28;100.00;100959.03;695683;28;1914;-69
2022/10/08 00:17:28;;;;;;;9.30;4.30;;;;;;;7.25;100.00;100958.97;699131;28;1424;-69
2022/10/08 00:17:49;;;;;;;11.18;4.40;;;;;;;7.29;100.00;100958.19;700009;28;1138;-70
2022/10/08 00:18:09;;;;;;;9.60;4.37;;;;;;;7.46;100.00;100961.88;698038;28;1122;-69
2022/10/08 00:18:30;;;;;;;8.63;4.30;;;;;;;7.54;100.00;100956.75;697821;28;1055;-68
2022/10/08 00:18:54;;;;;;;8.43;4.03;;;;;;;7.49;100.00;100954.09;698521;28;1287;-69
2022/10/08 00:19:15;;;;;;;10.73;4.38;;;;;;;7.45;100.00;100964.47;696471;28;4512;-70
2022/10/08 00:19:35;;;;;;;9.03;4.50;;;;;;;7.47;100.00;100963.59;696601;28;1083;-69
2022/10/08 00:19:56;;;;;;;8.70;4.60;;;;;;;7.47;100.00;100966.22;696307;28;1062;-70
2022/10/08 00:20:17;;;;;;;8.68;4.47;;;;;;;7.53;100.00;100962.81;696430;28;1142;-69
2022/10/08 00:20:37;;;;;;;8.70;4.00;;;;;;;7.58;100.00;100965.47;695025;28;1118;-70
2022/10/08 00:21:15;;;;;;;6.93;4.03;;;;;;;7.58;100.00;100965.47;696844;28;1091;-70
2022/10/08 00:21:37;;;;;;;9.75;4.10;;;;;;;7.50;100.00;100963.66;696265;28;1062;-69
2022/10/08 00:21:57;;;;;;;10.43;4.22;;;;;;;7.40;100.00;100967.00;695344;28;4289;-70
2022/10/08 00:22:18;;;;;;;8.98;4.03;;;;;;;7.28;100.00;100964.22;696805;28;1043;-69
2022/10/08 00:22:38;;;;;;;8.53;4.30;;;;;;;7.26;100.00;100960.75;696505;28;1054;-69
2022/10/08 00:23:00;;;;;;;8.20;4.30;;;;;;;7.23;100.00;100963.31;695401;28;1167;-69
2022/10/08 00:23:21;;;;;;;10.48;4.28;;;;;;;7.28;100.00;100959.03;695652;28;1245;-70
2022/10/08 00:23:42;;;;;;;9.07;4.27;;;;;;;7.28;100.00;100967.72;695985;28;1201;-70
2022/10/08 00:24:04;;;;;;;8.52;4.20;;;;;;;7.35;100.00;100963.44;696406;28;1197;-69
2022/10/08 00:24:24;;;;;;;9.43;4.20;;;;;;;7.44;100.00;100963.56;695656;28;1379;-68
2022/10/08 00:24:45;;;;;;;8.15;4.10;;;;;;;7.54;100.00;100972.38;696182;28;1344;-68
2022/10/08 00:25:07;;;;;;;8.07;3.83;;;;;;;7.58;100.00;100962.88;694539;28;4406;-67
2022/10/08 00:25:27;;;;;;;8.85;4.00;;;;;;;7.52;100.00;100963.69;694698;28;1022;-69
2022/10/08 00:25:47;;;;;;;9.65;4.28;;;;;;;7.44;100.00;100967.91;695287;28;1127;-69
2022/10/08 00:26:09;;;;;;;9.03;4.30;;;;;;;7.32;100.00;100960.81;696092;28;1102;-70
2022/10/08 00:26:31;;;;;;;8.93;4.18;;;;;;;7.26;100.00;100964.19;694493;28;1051;-70
2022/10/08 00:26:52;;;;;;;8.52;4.47;;;;;;;7.31;100.00;100967.75;694759;28;1988;-70
2022/10/08 00:27:12;;;;;;;9.53;4.23;;;;;;;7.35;100.00;100966.03;692843;28;1112;-69
2022/10/08 00:27:33;;;;;;;9.52;4.20;;;;;;;7.38;100.00;100963.50;693325;28;1075;-68
2022/10/08 00:27:53;;;;;;;8.90;4.18;;;;;;;7.33;100.00;100970.38;694434;28;1319;-69
2022/10/08 00:28:14;;;;;;;8.77;3.95;;;;;;;7.32;100.00;100961.69;690811;28;4304;-69
2022/10/08 00:28:35;;;;;;;8.73;4.00;;;;;;;7.41;100.00;100962.69;691765;28;1076;-69
2022/10/08 00:28:58;;;;;;;8.90;4.10;;;;;;;7.46;100.00;100966.19;691171;28;1209;-69
2022/10/08 00:29:20;;;;;;;9.25;4.40;;;;;;;7.49;100.00;100972.31;693609;28;1251;-68
2022/10/08 00:29:43;;;;;;;8.98;4.15;;;;;;;7.50;100.00;100963.66;691065;28;1080;-69
2022/10/08 00:30:04;;;;;;;8.55;4.13;;;;;;;7.44;100.00;100963.56;692604;28;1135;-68
2022/10/08 00:30:25;;;;;;;7.53;3.85;;;;;;;7.36;100.00;100962.59;690735;28;1568;-68
2022/10/08 00:30:45;;;;;;;8.50;4.10;;;;;;;7.31;100.00;100965.16;690269;28;1175;-69
2022/10/08 00:31:11;;;;;;;9.23;4.00;;;;;;;7.26;100.00;100960.75;691878;28;4424;-69
2022/10/08 00:31:37;;;;;;;9.02;4.40;;;;;;;7.24;100.00;100962.44;694928;28;1173;-69
2022/10/08 00:31:57;;;;;;;11.73;4.10;;;;;;;7.30;100.00;100965.13;695210;28;1058;-67
2022/10/08 00:32:18;;;;;;;12.05;4.55;;;;;;;7.40;100.00;100964.38;695896;28;1079;-70
2022/10/08 00:32:39;;;;;;;10.80;4.47;;;;;;;7.48;100.00;100960.16;695241;28;3615;-69
2022/10/08 00:33:01;;;;;;;11.70;4.03;;;;;;;7.53;100.00;100962.81;695261;28;1130;-69
2022/10/08 00:33:21;;;;;;;10.60;4.00;;;;;;;7.50;100.00;100957.56;695448;28;1252;-69
2022/10/08 00:33:42;;;;;;;8.73;4.10;;;;;;;7.46;100.00;100959.28;695036;28;1023;-70
2022/10/08 00:34:06;;;;;;;9.85;4.18;;;;;;;7.42;100.00;100965.28;695007;28;4569;-70
2022/10/08 00:34:26;;;;;;;8.45;3.80;;;;;;;7.42;100.00;100967.00;697084;28;1039;-69
2022/10/08 00:34:47;;;;;;;8.47;4.00;;;;;;;7.40;100.00;100959.19;700055;28;1111;-69
2022/10/08 00:35:07;;;;;;;7.55;3.90;;;;;;;7.37;100.00;100959.16;696035;28;1557;-69
2022/10/08 00:35:28;;;;;;;7.75;3.83;;;;;;;7.35;100.00;100963.44;696480;28;1094;-70
2022/10/08 00:35:48;;;;;;;7.83;3.90;;;;;;;7.34;100.00;100972.13;697036;28;1479;-68
2022/10/08 00:36:11;;;;;;;9.43;4.13;;;;;;;7.35;100.00;100960.84;697116;28;1036;-69
2022/10/08 00:36:33;;;;;;;9.38;4.43;;;;;;;7.39;100.00;100965.22;696137;28;981;-69
2022/10/08 00:36:54;;;;;;;7.88;4.10;;;;;;;7.39;100.00;100960.03;696531;28;1008;-70
2022/10/08 00:37:15;;;;;;;7.80;3.90;;;;;;;7.43;100.00;100959.22;695288;28;4349;-69
2022/10/08 00:37:35;;;;;;;7.22;4.03;;;;;;;7.47;100.00;100965.34;695834;28;988;-69
2022/10/08 00:37:56;;;;;;;7.73;4.20;;;;;;;7.42;100.00;100960.09;695010;28;1130;-69
2022/10/08 00:38:16;;;;;;;7.90;4.00;;;;;;;7.37;100.00;100959.16;696188;28;1137;-69
2022/10/08 00:38:37;;;;;;;7.85;3.97;;;;;;;7.37;100.00;100961.75;695702;28;1174;-70
2022/10/08 00:39:00;;;;;;;8.07;4.07;;;;;;;7.35;100.00;100957.38;696200;28;1149;-70
2022/10/08 00:39:23;;;;;;;9.50;4.00;;;;;;;7.34;100.00;100964.31;696013;28;1142;-69
2022/10/08 00:39:43;;;;;;;9.18;4.07;;;;;;;7.32;100.00;100955.59;694710;28;1269;-68
2022/10/08 00:40:04;;;;;;;9.10;4.25;;;;;;;7.28;100.00;100959.91;694192;28;4960;-68
2022/10/08 00:40:24;;;;;;;9.80;4.10;;;;;;;7.29;100.00;100960.78;692964;28;1417;-70
2022/10/08 00:40:45;;;;;;;8.73;4.15;;;;;;;7.28;100.00;100964.22;694061;28;1084;-67
2022/10/08 00:41:15;;;;;;;8.83;4.13;;;;;;;7.27;100.00;100960.75;693985;28;1139;-68
2022/10/08 00:41:37;;;;;;;8.50;4.32;;;;;;;7.24;100.00;100959.81;694078;28;1166;-70
2022/10/08 00:41:57;;;;;;;8.13;4.20;;;;;;;7.18;100.00;100960.63;693627;28;1824;-69
2022/10/08 00:42:18;;;;;;;9.60;4.22;;;;;;;7.15;100.00;100960.59;695452;28;1174;-69
2022/10/08 00:42:40;;;;;;;9.63;4.50;;;;;;;7.09;100.00;100950.97;696238;28;1228;-70
2022/10/08 00:43:01;;;;;;;8.35;4.18;;;;;;;7.06;100.00;100952.66;693622;28;4474;-70
2022/10/08 00:43:36;;;;;;;8.05;3.70;;;;;;;7.04;100.00;100956.97;692244;28;963;-69
2022/10/08 00:44:02;;;;;;;9.43;4.22;;;;;;;6.97;100.00;100956.84;695341;28;1210;-69
2022/10/08 00:44:49;;;;;;;7.75;3.83;;;;;;;6.87;100.00;100951.50;695998;28;1049;-69
2022/10/08 00:45:12;;;;;;;8.52;4.20;;;;;;;7.03;100.00;100950.88;696669;28;1192;-69
2022/10/08 00:45:33;;;;;;;7.35;4.15;;;;;;;7.14;100.00;100957.13;697330;28;1169;-70
2022/10/08 00:45:53;;;;;;;9.00;4.10;;;;;;;7.09;100.00;100955.28;693741;28;919;-69
2022/10/08 00:46:21;;;;;;;8.60;4.17;;;;;;;7.09;100.00;100953.56;694513;28;4477;-68
2022/10/08 00:46:48;;;;;;;9.18;3.80;;;;;;;7.10;100.00;100957.94;693478;28;1142;-70
2022/10/08 00:47:19;;;;;;;9.38;4.45;;;;;;;7.05;100.00;100958.69;692698;28;1128;-69
2022/10/08 00:47:45;;;;;;;9.35;4.20;;;;;;;7.08;100.00;100948.34;693438;28;1158;-67
2022/10/08 00:48:05;;;;;;;9.02;3.95;;;;;;;7.22;100.00;100958.94;693444;28;2315;-70
2022/10/08 00:48:25;;;;;;;8.47;3.83;;;;;;;7.27;100.00;100954.66;692233;28;1220;-69
2022/10/08 00:48:46;;;;;;;8.05;3.78;;;;;;;7.23;100.00;100950.31;691517;28;1179;-68
2022/10/08 00:49:12;;;;;;;8.40;4.10;;;;;;;7.13;100.00;100950.16;693569;28;4300;-69
2022/10/08 00:49:32;;;;;;;8.00;4.10;;;;;;;7.11;100.00;100949.25;692808;28;1298;-69
2022/10/08 00:49:56;;;;;;;8.87;4.20;;;;;;;7.13;100.00;100946.66;691504;28;1160;-70
2022/10/08 00:50:25;;;;;;;8.85;4.15;;;;;;;7.08;100.00;100949.22;694012;28;1103;-69
2022/10/08 00:50:46;;;;;;;9.35;4.10;;;;;;;7.05;100.00;100953.50;694490;28;864;-70
2022/10/08 00:51:06;;;;;;;8.40;4.30;;;;;;;7.05;100.00;100949.19;695399;28;1277;-68
2022/10/08 00:51:29;;;;;;;7.30;3.80;;;;;;;7.08;100.00;100944.03;695883;28;876;-69
2022/10/08 00:51:53;;;;;;;7.88;3.90;;;;;;;7.04;100.00;100946.56;697128;28;1145;-67
2022/10/08 00:52:15;;;;;;;8.65;4.00;;;;;;;7.03;100.00;100950.88;695097;28;4432;-70
2022/10/08 00:52:42;;;;;;;9.20;4.13;;;;;;;7.00;100.00;100945.63;695599;28;1102;-68
2022/10/08 00:53:06;;;;;;;9.48;4.45;;;;;;;6.97;100.00;100943.88;696363;28;1313;-70
2022/10/08 00:53:29;;;;;;;8.82;4.22;;;;;;;6.97;100.00;100945.59;695345;28;1177;-69
2022/10/08 00:53:50;;;;;;;8.10;3.63;;;;;;;6.96;100.00;100943.84;695881;28;1180;-70
2022/10/08 00:54:12;;;;;;;7.70;3.80;;;;;;;6.96;100.00;100949.03;693929;28;1155;-70
2022/10/08 00:54:32;;;;;;;9.48;4.05;;;;;;;6.94;100.00;100945.56;694254;28;1317;-69
2022/10/08 00:54:53;;;;;;;9.65;4.18;;;;;;;6.93;100.00;100944.66;693434;28;1067;-70
2022/10/08 00:55:16;;;;;;;9.20;4.30;;;;;;;6.94;100.00;100948.16;693095;28;4342;-68
2022/10/08 00:55:39;;;;;;;8.77;4.13;;;;;;;7.03;100.00;100950.88;693298;28;1112;-69
2022/10/08 00:56:02;;;;;;;8.23;4.00;;;;;;;7.15;100.00;100945.84;696770;28;1201;-69
2022/10/08 00:56:23;;;;;;;9.55;3.90;;;;;;;7.12;100.00;100943.22;695203;28;1086;-70
2022/10/08 00:56:46;;;;;;;7.90;3.70;;;;;;;7.07;100.00;100947.47;696643;28;1252;-70
2022/10/08 00:57:08;;;;;;;9.35;3.90;;;;;;;7.04;100.00;100951.75;694938;28;1906;-69
2022/10/08 00:57:29;;;;;;;10.07;4.10;;;;;;;7.01;100.00;100950.00;696030;28;1079;-69
2022/10/08 00:57:50;;;;;;;10.30;4.07;;;;;;;6.98;100.00;100945.63;696629;28;1041;-69
2022/10/08 00:58:21;;;;;;;12.30;4.20;;;;;;;6.98;100.00;100949.94;694941;28;4299;-68
2022/10/08 00:58:43;;;;;;;8.15;4.38;;;;;;;7.03;100.00;100950.88;695848;28;1201;-69
2022/10/08 00:59:04;;;;;;;7.72;3.80;;;;;;;7.04;100.00;100955.22;696562;28;1323;-69
2022/10/08 00:59:25;;;;;;;9.07;4.03;;;;;;;7.03;100.00;100948.28;696827;28;1345;-70
2022/10/08 00:59:45;;;;;;;9.63;4.10;;;;;;;7.05;100.00;100948.28;694705;28;924;-69
2022/10/08 01:00:15;;;;;;;9.13;4.07;;;;;;;7.02;100.00;100951.75;694173;28;1119;-67
2022/10/08 01:00:36;;;;;;;9.60;4.20;;;;;;;7.03;100.00;100950.88;693257;28;845;-69
2022/10/08 01:00:57;;;;;;;8.50;4.17;;;;;;;6.98;100.00;100942.16;693194;28;4322;-69
2022/10/08 01:01:18;;;;;;;7.78;3.83;;;;;;;7.01;100.00;100947.41;693834;28;1052;-70
2022/10/08 01:01:42;;;;;;;8.88;4.10;;;;;;;7.03;100.00;100944.81;694541;28;1218;-70
2022/10/08 01:02:07;;;;;;;8.60;4.10;;;;;;;7.02;100.00;100949.16;696023;28;1235;-69
2022/10/08 01:02:27;;;;;;;10.25;3.97;;;;;;;6.96;100.00;100951.63;696032;28;1083;-67
2022/10/08 01:02:48;;;;;;;10.50;4.13;;;;;;;6.94;100.00;100945.56;696078;28;1371;-69
2022/10/08 01:03:08;;;;;;;9.20;3.83;;;;;;;6.97;100.00;100948.19;696879;28;1129;-69
2022/10/08 01:03:29;;;;;;;9.80;3.97;;;;;;;7.05;100.00;100945.69;697220;28;1157;-70
2022/10/08 01:03:49;;;;;;;11.00;3.90;;;;;;;7.13;100.00;100947.56;695809;28;1086;-68
2022/10/08 01:04:11;;;;;;;10.73;4.20;;;;;;;7.19;100.00;100951.13;695111;28;4347;-70
2022/10/08 01:04:31;;;;;;;10.38;3.70;;;;;;;7.19;100.00;100943.31;696103;28;1047;-67
2022/10/08 01:04:51;;;;;;;9.60;4.00;;;;;;;7.18;100.00;100938.97;695670;28;1350;-69
2022/10/08 01:05:15;;;;;;;9.47;3.97;;;;;;;7.18;100.00;100946.75;697420;28;1127;-69
2022/10/08 01:06:00;;;;;;;10.05;3.92;;;;;;;7.16;100.00;100957.16;698154;28;1122;-70
2022/10/08 01:06:29;;;;;;;10.05;3.97;;;;;;;7.16;100.00;100945.00;696560;28;4805;-70
2022/10/08 01:06:59;;;;;;;9.07;3.90;;;;;;;7.14;100.00;100957.13;696671;28;1122;-70
2022/10/08 01:07:35;;;;;;;8.90;4.22;;;;;;;7.14;100.00;100946.72;700092;28;4767;-70
2022/10/08 01:08:18;;;;;;;9.27;3.97;;;;;;;7.15;100.00;100950.19;698335;28;1106;-69
2022/10/08 01:08:47;;;;;;;10.23;3.67;;;;;;;7.21;100.00;100945.06;698435;28;1048;-69
2022/10/08 01:09:28;;;;;;;8.15;3.70;;;;;;;7.21;100.00;100949.41;698239;28;1474;-70
2022/10/08 01:09:51;;;;;;;8.40;3.78;;;;;;;7.14;100.00;100940.63;696191;28;1423;-69
2022/10/08 01:10:37;;;;;;;9.48;3.85;;;;;;;7.14;100.00;100946.72;696746;28;4324;-70
2022/10/08 01:11:19;;;;;;;8.23;3.78;;;;;;;7.15;100.00;100950.19;696415;28;1108;-67
2022/10/08 01:11:53;;;;;;;9.65;3.90;;;;;;;7.18;100.00;100949.34;697773;28;1189;-70
2022/10/08 01:12:27;;;;;;;8.18;3.70;;;;;;;7.19;100.00;100945.91;699009;28;2447;-69
2022/10/08 01:13:31;;;;;;;7.70;3.92;;;;;;;7.22;100.00;100949.41;698409;28;1091;-70
2022/10/08 01:14:03;;;;;;;9.18;3.63;;;;;;;7.21;100.00;100944.19;694970;28;4854;-67
2022/10/08 01:14:38;;;;;;;8.80;3.70;;;;;;;7.29;100.00;100943.44;696320;28;1321;-70
2022/10/08 01:15:11;;;;;;;9.07;3.70;;;;;;;7.25;100.00;100953.78;695986;28;1243;-70
2022/10/08 01:15:54;;;;;;;7.65;3.60;;;;;;;7.31;100.00;100943.44;694693;28;1146;-70
2022/10/08 01:16:23;;;;;;;9.68;3.70;;;;;;;7.30;100.00;100949.53;698492;28;1157;-69
2022/10/08 01:16:49;;;;;;;8.75;3.67;;;;;;;7.28;100.00;100940.81;697624;28;1131;-67
2022/10/08 01:17:18;;;;;;;8.13;3.60;;;;;;;7.28;100.00;100936.50;698730;28;1977;-70
2022/10/08 01:17:48;;;;;;;7.72;3.45;;;;;;;7.28;100.00;100943.41;695252;28;1094;-69
2022/10/08 01:18:46;;;;;;;7.10;3.30;;;;;;;7.32;100.00;100942.59;696151;28;1181;-69
2022/10/08 01:19:21;;;;;;;6.07;3.30;;;;;;;7.41;100.00;100945.34;693408;28;4431;-69
2022/10/08 01:20:06;;;;;;;9.48;3.72;;;;;;;7.44;100.00;100940.16;695397;28;1241;-70
2022/10/08 01:20:51;;;;;;;9.15;3.75;;;;;;;7.44;100.00;100942.75;694770;28;1168;-70
2022/10/08 01:21:17;;;;;;;9.45;3.60;;;;;;;7.45;100.00;100951.47;697468;28;1067;-69
2022/10/08 01:21:43;;;;;;;7.30;3.55;;;;;;;7.40;100.00;100943.56;695705;28;1070;-67
2022/10/08 01:22:37;;;;;;;9.68;3.50;;;;;;;7.39;100.00;100939.22;695793;28;4449;-70
2022/10/08 01:23:09;;;;;;;9.45;3.67;;;;;;;7.39;100.00;100948.75;697194;28;1126;-70
2022/10/08 01:24:01;;;;;;;9.45;3.95;;;;;;;7.43;100.00;100948.81;695289;28;946;-70
2022/10/08 01:25:31;;;;;;;7.22;3.60;;;;;;;7.48;100.00;100938.47;687305;28;4859;-69
2022/10/08 01:26:27;;;;;;;7.22;3.45;;;;;;;7.54;100.00;100937.69;687602;28;988;-68
2022/10/08 01:26:50;;;;;;;8.25;3.50;;;;;;;7.54;100.00;100938.53;688194;28;1247;-70
2022/10/08 01:27:44;;;;;;;8.10;3.55;;;;;;;7.57;100.00;100938.56;686671;28;1261;-70
2022/10/08 01:28:16;;;;;;;6.63;3.30;;;;;;;7.55;100.00;100939.44;695823;28;5257;-70
2022/10/08 01:28:39;;;;;;;9.02;3.55;;;;;;;7.52;100.00;100939.38;695616;28;3620;-68
2022/10/08 01:29:07;;;;;;;9.82;3.60;;;;;;;7.48;100.00;100943.69;696452;28;1137;-68
2022/10/08 01:29:45;;;;;;;8.00;3.60;;;;;;;7.48;100.00;100941.94;696979;28;1024;-70
2022/10/08 01:30:13;;;;;;;7.07;3.40;;;;;;;7.50;100.00;100934.16;695690;28;1007;-70
2022/10/08 01:30:38;;;;;;;10.48;3.67;;;;;;;7.50;100.00;100935.06;695696;28;1059;-68
2022/10/08 01:31:17;;;;;;;8.55;3.42;;;;;;;7.54;100.00;100937.69;695394;28;4615;-70
2022/10/08 01:31:46;;;;;;;8.48;3.47;;;;;;;7.52;100.00;100939.38;695559;28;1046;-70
2022/10/08 01:32:14;;;;;;;7.53;3.28;;;;;;;7.54;100.00;100940.28;695709;28;1055;-70
2022/10/08 01:32:41;;;;;;;9.77;3.50;;;;;;;7.53;100.00;100942.00;695831;28;960;-69
2022/10/08 01:33:11;;;;;;;8.93;3.55;;;;;;;7.52;100.00;100944.56;695803;28;912;-68
2022/10/08 01:33:44;;;;;;;9.38;3.90;;;;;;;7.50;100.00;100945.47;695419;28;1128;-69
2022/10/08 01:34:29;;;;;;;9.02;3.67;;;;;;;7.49;100.00;100950.63;694773;28;4432;-70
2022/10/08 01:34:56;;;;;;;8.60;3.50;;;;;;;7.42;100.00;100944.50;693059;28;1131;-69
2022/10/08 01:35:20;;;;;;;9.23;3.55;;;;;;;7.42;100.00;100943.59;692373;28;1138;-70
2022/10/08 01:35:52;;;;;;;7.57;3.53;;;;;;;7.43;100.00;100946.22;693712;28;1388;-70
2022/10/08 01:36:17;;;;;;;8.63;3.47;;;;;;;7.43;100.00;100950.56;691470;28;948;-69
2022/10/08 01:36:44;;;;;;;8.30;3.58;;;;;;;7.41;100.00;100945.34;691642;28;1131;-68
2022/10/08 01:37:08;;;;;;;8.43;3.65;;;;;;;7.42;100.00;100947.09;690686;28;4385;-68
2022/10/08 01:37:32;;;;;;;8.65;3.78;;;;;;;7.40;100.00;100946.19;692309;28;1380;-68
2022/10/08 01:37:54;;;;;;;10.00;3.53;;;;;;;7.38;100.00;100947.91;692748;28;926;-69
2022/10/08 01:38:18;;;;;;;9.50;3.60;;;;;;;7.42;100.00;100941.00;695374;28;1075;-70
2022/10/08 01:38:48;;;;;;;7.97;3.35;;;;;;;7.44;100.00;100942.75;698594;28;1076;-70
2022/10/08 01:39:14;;;;;;;6.93;3.50;;;;;;;7.43;100.00;100948.81;698360;28;1040;-70
2022/10/08 01:39:38;;;;;;;9.43;3.40;;;;;;;7.43;100.00;100945.34;699003;28;1024;-68
2022/10/08 01:40:02;;;;;;;7.97;3.60;;;;;;;7.42;100.00;100944.50;697419;28;4538;-70
2022/10/08 01:40:31;;;;;;;9.32;3.75;;;;;;;7.42;100.00;100948.78;696662;28;1035;-70
2022/10/08 01:40:57;;;;;;;9.85;3.60;;;;;;;7.42;100.00;100944.50;694871;28;1196;-68
2022/10/08 01:41:20;;;;;;;8.98;3.28;;;;;;;7.42;100.00;100954.88;695802;28;1390;-70
2022/10/08 01:41:46;;;;;;;8.10;3.42;;;;;;;7.41;100.00;100947.94;693976;28;1274;-70
2022/10/08 01:42:09;;;;;;;8.35;3.50;;;;;;;7.42;100.00;100949.69;694564;28;1099;-70
2022/10/08 01:42:34;;;;;;;8.20;3.50;;;;;;;7.42;100.00;100946.19;692493;28;1043;-69
2022/10/08 01:42:57;;;;;;;8.32;3.53;;;;;;;7.42;100.00;100947.09;692603;28;1061;-68
2022/10/08 01:43:21;;;;;;;7.13;3.55;;;;;;;7.43;100.00;100947.94;694181;28;5093;-69
2022/10/08 01:43:48;;;;;;;7.88;3.58;;;;;;;7.44;100.00;100942.75;699218;28;1267;-68
2022/10/08 01:44:19;;;;;;;8.05;3.30;;;;;;;7.47;100.00;100947.13;700688;28;1022;-69
2022/10/08 01:44:45;;;;;;;8.45;3.47;;;;;;;7.44;100.00;100947.09;699727;28;995;-70
2022/10/08 01:45:14;;;;;;;9.68;3.45;;;;;;;7.42;100.00;100943.59;698691;28;1071;-69
2022/10/08 01:45:42;;;;;;;9.02;3.63;;;;;;;7.42;100.00;100947.09;694364;28;1052;-70
2022/10/08 01:46:12;;;;;;;8.75;3.65;;;;;;;7.43;100.00;100945.34;695903;28;4538;-69
2022/10/08 01:46:38;;;;;;;9.15;3.50;;;;;;;7.42;100.00;100944.50;696536;28;1083;-69
2022/10/08 01:47:02;;;;;;;8.32;3.60;;;;;;;7.44;100.00;100945.38;695519;28;1163;-70
2022/10/08 01:47:29;;;;;;;9.07;3.53;;;;;;;7.45;100.00;100947.13;695914;28;931;-69
2022/10/08 01:47:53;;;;;;;7.80;3.38;;;;;;;7.47;100.00;100942.78;695458;28;956;-68
2022/10/08 01:48:20;;;;;;;9.68;3.60;;;;;;;7.47;100.00;100937.59;696815;28;941;-70
2022/10/08 01:48:42;;;;;;;8.30;3.20;;;;;;;7.47;100.00;100947.13;694683;28;1213;-70
2022/10/08 01:49:09;;;;;;;8.35;3.20;;;;;;;7.46;100.00;100946.28;695134;28;4468;-70
2022/10/08 01:49:41;;;;;;;7.72;3.40;;;;;;;7.46;100.00;100946.28;692546;28;956;-69
2022/10/08 01:50:16;;;;;;;8.25;3.85;;;;;;;7.46;100.00;100945.38;692184;28;1595;-69
2022/10/08 01:50:43;;;;;;;7.88;3.47;;;;;;;7.43;100.00;100950.56;693386;28;1075;-70
2022/10/08 01:51:32;;;;;;;10.95;3.80;;;;;;;7.41;100.00;100945.34;692692;28;1281;-69
2022/10/08 01:52:06;;;;;;;9.10;3.60;;;;;;;7.41;100.00;100949.66;694696;28;2025;-69
2022/10/08 01:52:32;;;;;;;10.05;4.03;;;;;;;7.41;100.00;100945.34;695941;28;4861;-70
2022/10/08 01:52:58;;;;;;;9.05;3.58;;;;;;;7.44;100.00;100947.97;695899;28;1118;-69
2022/10/08 01:53:21;;;;;;;8.10;3.58;;;;;;;7.48;100.00;100930.69;695339;28;1095;-69
2022/10/08 01:53:46;;;;;;;6.47;3.00;;;;;;;7.55;100.00;100940.31;698505;28;1763;-68
2022/10/08 01:54:09;;;;;;;6.88;3.13;;;;;;;7.61;100.00;100937.75;699363;28;1174;-68
2022/10/08 01:54:32;;;;;;;7.75;3.28;;;;;;;7.61;100.00;100935.16;698605;28;1005;-70
2022/10/08 01:55:00;;;;;;;8.52;3.22;;;;;;;7.60;100.00;100937.75;698094;28;1098;-68
2022/10/08 01:55:30;;;;;;;9.57;3.53;;;;;;;7.59;100.00;100941.22;698525;28;5039;-70
2022/10/08 01:55:54;;;;;;;9.23;3.38;;;;;;;7.59;100.00;100936.88;696178;28;1102;-69
2022/10/08 01:56:19;;;;;;;8.27;3.40;;;;;;;7.58;100.00;100932.53;696455;28;1589;-69
2022/10/08 01:56:41;;;;;;;8.10;3.55;;;;;;;7.60;100.00;100930.81;696708;28;1208;-70
2022/10/08 01:57:04;;;;;;;7.60;3.25;;;;;;;7.57;100.00;100930.78;695911;28;1356;-70
2022/10/08 01:57:29;;;;;;;7.97;3.65;;;;;;;7.56;100.00;100938.56;696417;28;1113;-70
2022/10/08 01:57:50;;;;;;;9.65;3.45;;;;;;;7.57;100.00;100930.78;695567;28;877;-69
2022/10/08 01:58:20;;;;;;;9.00;3.40;;;;;;;7.58;100.00;100929.06;697584;28;4548;-69
2022/10/08 01:58:53;;;;;;;8.25;3.20;;;;;;;7.58;100.00;100934.25;698197;28;1460;-70
2022/10/08 01:59:24;;;;;;;7.65;3.53;;;;;;;7.57;100.00;100933.38;698390;28;1066;-67
2022/10/08 01:59:54;;;;;;;10.65;3.92;;;;;;;7.56;100.00;100935.97;697079;28;945;-69
2022/10/08 02:00:15;;;;;;;8.50;3.17;;;;;;;7.55;100.00;100939.44;695069;28;1047;-68
2022/10/08 02:00:37;;;;;;;10.17;3.57;;;;;;;7.54;100.00;100937.69;696429;28;1067;-67
2022/10/08 02:01:04;;;;;;;10.50;3.60;;;;;;;7.55;100.00;100929.91;697230;28;4942;-70
2022/10/08 02:01:51;;;;;;;8.00;3.25;;;;;;;7.59;100.00;100934.28;694815;28;1407;-67
2022/10/08 02:02:22;;;;;;;9.63;3.30;;;;;;;7.58;100.00;100929.91;696084;28;1102;-69
2022/10/08 02:02:43;;;;;;;9.52;3.33;;;;;;;7.60;100.00;100927.34;695856;28;1099;-70